Time;durP1;ratioP1;P1;durP2;ratioP2;P2;SDS_P1;SDS_P2;PMS_P1;PMS_P2;Temp;Humidity;BMP_temperature;BMP_pressure;BME280_temperature;BME280_humidity;BME280_pressure;Samples;Min_cycle;Max_cycle;Signal;HPM_P1;HPM_P2
2021/05/29 00:01:16;;;;;;;14.58;12.05;;;;;;;12.08;75.90;100900.67;1626876;83;25741;-73
2021/05/29 00:03:42;;;;;;;15.98;12.10;;;;;;;12.11;75.96;100900.30;1677436;84;26475;-74
2021/05/29 00:06:10;;;;;;;15.23;11.97;;;;;;;12.16;75.93;100898.39;1708792;83;27412;-74
2021/05/29 00:08:37;;;;;;;16.25;12.18;;;;;;;12.19;75.84;100911.42;1638208;84;25758;-73
2021/05/29 00:11:04;;;;;;;15.98;11.48;;;;;;;12.21;75.86;100903.51;1627473;83;26477;-73
2021/05/29 00:13:31;;;;;;;16.60;11.95;;;;;;;12.22;75.91;100913.24;1685958;84;25706;-74
2021/05/29 00:15:59;;;;;;;16.25;11.50;;;;;;;12.18;76.03;100908.44;1689289;82;25639;-73
2021/05/29 00:18:26;;;;;;;15.00;12.28;;;;;;;12.13;76.09;100906.81;1659320;82;27473;-73
2021/05/29 00:20:54;;;;;;;18.32;12.47;;;;;;;12.05;76.23;100906.44;1608341;83;25689;-74
2021/05/29 00:23:21;;;;;;;12.98;11.25;;;;;;;12.07;76.39;100910.27;1687368;82;25703;-73
2021/05/29 00:25:49;;;;;;;16.60;12.68;;;;;;;12.05;76.55;100913.15;1711243;82;25681;-73
2021/05/29 00:28:16;;;;;;;15.40;12.35;;;;;;;12.00;76.56;100912.87;1659810;82;25773;-73
2021/05/29 00:30:44;;;;;;;15.25;11.85;;;;;;;11.96;76.71;100912.92;1659336;81;27006;-73
2021/05/29 00:33:12;;;;;;;15.15;10.98;;;;;;;11.97;76.88;100910.58;1710430;82;25646;-74
2021/05/29 00:35:39;;;;;;;15.70;10.95;;;;;;;11.94;77.02;100910.94;1711943;81;25905;-74
2021/05/29 00:38:07;;;;;;;15.75;11.63;;;;;;;11.90;77.16;100906.13;1680576;82;26043;-73
2021/05/29 00:40:35;;;;;;;13.30;10.98;;;;;;;11.90;77.29;100914.19;1666512;82;26063;-74
2021/05/29 00:43:04;;;;;;;16.10;10.88;;;;;;;11.89;77.43;100908.52;1722394;82;27476;-73
2021/05/29 00:45:32;;;;;;;14.40;11.43;;;;;;;11.88;77.41;100911.70;1711643;82;25681;-73
2021/05/29 00:48:02;;;;;;;14.07;11.78;;;;;;;11.89;77.60;100906.64;1665670;83;25818;-73
2021/05/29 00:50:33;;;;;;;13.88;10.90;;;;;;;11.90;77.71;100905.63;1678555;82;34913;-73
2021/05/29 00:53:01;;;;;;;28.40;12.80;;;;;;;11.88;77.68;100909.52;1716501;82;25681;-74
2021/05/29 00:55:29;;;;;;;12.23;10.25;;;;;;;11.89;77.76;100913.88;1719571;82;27514;-73
2021/05/29 00:57:56;;;;;;;13.08;9.98;;;;;;;11.85;77.84;100901.83;1642317;83;25663;-73
2021/05/29 01:00:25;;;;;;;13.10;10.65;;;;;;;11.83;78.08;100903.36;1618317;85;25734;-73
2021/05/29 01:02:52;;;;;;;13.53;10.20;;;;;;;11.82;78.12;100903.06;1680737;82;25850;-74
2021/05/29 01:05:21;;;;;;;12.30;10.50;;;;;;;11.80;78.09;100905.10;1713701;82;25582;-74
2021/05/29 01:07:53;;;;;;;14.83;10.48;;;;;;;11.79;78.22;100902.58;1663795;82;27517;-74
2021/05/29 01:10:22;;;;;;;14.75;10.65;;;;;;;11.79;78.42;100903.92;1648232;82;25495;-74
2021/05/29 01:12:51;;;;;;;17.52;10.80;;;;;;;11.80;78.46;100901.07;1713480;82;25671;-73
2021/05/29 01:15:20;;;;;;;14.38;10.53;;;;;;;11.78;78.51;100906.30;1717497;82;26487;-74
2021/05/29 01:17:47;;;;;;;11.35;9.73;;;;;;;11.77;78.60;100904.12;1649563;82;25852;-73
2021/05/29 01:20:17;;;;;;;11.40;9.58;;;;;;;11.75;78.84;100902.63;1633119;82;27930;-74
2021/05/29 01:22:51;;;;;;;12.75;10.48;;;;;;;11.72;78.98;100908.39;1713672;82;25783;-74
2021/05/29 01:25:38;;;;;;;14.33;10.03;;;;;;;11.71;78.89;100908.89;1720236;82;25764;-73
2021/05/29 01:28:16;;;;;;;16.73;10.23;;;;;;;11.73;78.98;100907.36;1681210;82;26086;-73
2021/05/29 01:30:59;;;;;;;12.47;10.50;;;;;;;11.71;79.17;100904.87;1699541;82;25753;-73
2021/05/29 01:33:31;;;;;;;11.45;10.18;;;;;;;11.71;79.27;100907.55;1687029;82;27294;-73
2021/05/29 01:36:01;;;;;;;14.28;10.38;;;;;;;11.71;79.23;100902.69;1672563;82;25706;-73
2021/05/29 01:38:29;;;;;;;13.70;10.48;;;;;;;11.69;79.23;100905.56;1686159;82;25694;-74
2021/05/29 01:41:09;;;;;;;12.45;10.60;;;;;;;11.68;79.33;100901.70;1711655;82;25616;-73
2021/05/29 01:43:42;;;;;;;14.20;10.25;;;;;;;11.68;79.32;100899.86;1712078;82;25698;-73
2021/05/29 01:46:11;;;;;;;15.68;10.82;;;;;;;11.68;79.37;100901.70;1651764;84;27473;-73
2021/05/29 01:48:42;;;;;;;13.08;10.68;;;;;;;11.67;79.38;100909.45;1660970;83;25621;-74
2021/05/29 01:51:08;;;;;;;13.03;10.45;;;;;;;11.67;79.42;100903.58;1677319;84;26076;-74
2021/05/29 01:53:35;;;;;;;14.05;10.65;;;;;;;11.67;79.37;100911.63;1671763;84;26155;-73
2021/05/29 01:56:03;;;;;;;13.70;9.90;;;;;;;11.67;79.44;100912.97;1650067;84;25829;-74
2021/05/29 01:58:31;;;;;;;11.50;10.00;;;;;;;11.68;79.49;100911.09;1674155;84;27582;-73
2021/05/29 02:00:58;;;;;;;13.03;10.45;;;;;;;11.63;79.42;100908.44;1680304;84;25624;-74
2021/05/29 02:03:25;;;;;;;11.85;9.15;;;;;;;11.61;79.40;100908.33;1679694;84;26487;-74
2021/05/29 02:05:52;;;;;;;11.28;9.78;;;;;;;11.59;79.52;100903.62;1668030;84;25937;-73
2021/05/29 02:08:20;;;;;;;16.10;10.65;;;;;;;11.55;79.47;100907.20;1623833;85;25755;-73
2021/05/29 02:10:47;;;;;;;12.53;9.40;;;;;;;11.55;79.63;100907.20;1642378;84;27269;-73
2021/05/29 02:13:36;;;;;;;13.58;10.13;;;;;;;11.51;79.50;100913.11;1662543;86;25556;-73
2021/05/29 02:16:08;;;;;;;11.93;9.28;;;;;;;11.50;79.47;100914.95;1701001;83;25243;-73
2021/05/29 02:18:37;;;;;;;13.45;10.25;;;;;;;11.49;79.62;100917.84;1631651;84;25929;-73
2021/05/29 02:21:11;;;;;;;14.15;9.65;;;;;;;11.45;79.76;100912.02;1641655;84;26090;-74
2021/05/29 02:23:42;;;;;;;13.75;10.70;;;;;;;11.45;79.67;100923.25;1675857;84;27162;-74
2021/05/29 02:26:13;;;;;;;13.18;10.20;;;;;;;11.40;79.63;100918.44;1677656;84;25659;-73
2021/05/29 02:28:43;;;;;;;13.15;10.03;;;;;;;11.42;79.72;100924.94;1667456;84;26485;-74
2021/05/29 02:31:13;;;;;;;12.58;9.93;;;;;;;11.45;79.69;100926.77;1603754;84;25977;-73
2021/05/29 02:33:41;;;;;;;12.93;10.65;;;;;;;11.44;79.73;100926.96;1650072;84;25907;-73
2021/05/29 02:36:09;;;;;;;13.00;10.60;;;;;;;11.41;79.64;100928.66;1673396;84;27579;-73
2021/05/29 02:38:38;;;;;;;13.35;10.68;;;;;;;11.41;79.61;100928.16;1650992;84;26362;-73
2021/05/29 02:41:08;;;;;;;11.90;10.08;;;;;;;11.41;79.53;100927.31;1615652;86;25738;-73
2021/05/29 02:43:37;;;;;;;12.28;10.78;;;;;;;11.43;79.49;100923.94;1692592;84;25783;-73
2021/05/29 02:46:04;;;;;;;11.20;10.03;;;;;;;11.42;79.41;100923.10;1669516;84;25825;-74
2021/05/29 02:48:31;;;;;;;11.22;10.03;;;;;;;11.39;79.35;100926.17;1642859;84;27550;-74
2021/05/29 02:50:58;;;;;;;12.18;10.63;;;;;;;11.36;79.31;100921.66;1651877;84;25700;-74
2021/05/29 02:53:26;;;;;;;13.43;10.58;;;;;;;11.31;79.26;100920.87;1686517;84;25775;-74
2021/05/29 02:55:53;;;;;;;13.13;11.65;;;;;;;11.28;79.31;100925.78;1702972;83;26351;-74
2021/05/29 02:58:20;;;;;;;12.20;9.25;;;;;;;11.25;79.42;100921.61;1653085;83;25705;-74
2021/05/29 03:00:50;;;;;;;11.33;9.80;;;;;;;11.20;79.27;100928.05;1644869;83;27855;-74
2021/05/29 03:03:17;;;;;;;10.80;9.35;;;;;;;11.16;79.30;100928.59;1707079;83;25757;-74
2021/05/29 03:05:48;;;;;;;11.08;9.70;;;;;;;11.12;79.37;100927.30;1690165;84;25658;-73
2021/05/29 03:08:17;;;;;;;12.23;9.68;;;;;;;11.11;79.44;100930.97;1630357;84;25736;-73
2021/05/29 03:10:45;;;;;;;10.15;8.78;;;;;;;11.11;79.33;100931.81;1618392;84;25762;-73
2021/05/29 03:13:14;;;;;;;10.68;9.28;;;;;;;11.14;79.34;100928.75;1690809;83;28064;-74
2021/05/29 03:15:41;;;;;;;11.88;9.58;;;;;;;11.18;79.25;100922.03;1689212;84;25783;-74
2021/05/29 03:18:09;;;;;;;12.88;9.53;;;;;;;11.20;79.16;100921.34;1648322;84;25707;-74
2021/05/29 03:20:37;;;;;;;10.25;8.70;;;;;;;11.23;79.06;100928.16;1661810;84;25993;-74
2021/05/29 03:23:06;;;;;;;10.28;9.10;;;;;;;11.28;79.07;100928.45;1722644;81;25649;-73
2021/05/29 03:25:33;;;;;;;12.82;9.40;;;;;;;11.31;78.85;100930.79;1719311;82;27511;-73
2021/05/29 03:28:01;;;;;;;10.55;9.03;;;;;;;11.31;78.67;100930.25;1641156;84;25340;-73
2021/05/29 03:30:30;;;;;;;10.75;8.93;;;;;;;11.28;78.55;100926.62;1656421;84;25733;-74
2021/05/29 03:32:58;;;;;;;9.95;8.30;;;;;;;11.28;78.52;100928.45;1677441;84;26023;-73
2021/05/29 03:35:25;;;;;;;11.08;8.35;;;;;;;11.27;78.50;100925.47;1677445;84;25743;-73
2021/05/29 03:37:53;;;;;;;9.70;8.70;;;;;;;11.22;78.45;100925.17;1641487;84;27471;-73
2021/05/29 03:40:20;;;;;;;11.12;9.08;;;;;;;11.20;78.42;100928.55;1606052;84;25792;-74
2021/05/29 03:42:47;;;;;;;9.08;7.97;;;;;;;11.16;78.42;100925.91;1683097;84;25643;-74
2021/05/29 03:45:17;;;;;;;10.63;9.00;;;;;;;11.14;78.46;100917.22;1657790;84;25730;-73
2021/05/29 03:47:45;;;;;;;9.58;8.48;;;;;;;11.14;78.55;100919.37;1658788;82;25870;-74
2021/05/29 03:50:17;;;;;;;10.08;8.30;;;;;;;11.14;78.48;100922.05;1648553;85;27371;-74
2021/05/29 03:52:44;;;;;;;12.28;8.53;;;;;;;11.11;78.59;100923.77;1681064;84;26554;-73
2021/05/29 03:55:13;;;;;;;13.65;9.10;;;;;;;11.12;78.56;100924.08;1669827;85;25717;-73
2021/05/29 03:57:40;;;;;;;10.25;8.90;;;;;;;11.16;78.58;100922.70;1642764;85;25743;-73
2021/05/29 04:00:10;;;;;;;12.75;8.53;;;;;;;11.18;78.57;100924.72;1604139;85;26699;-73
2021/05/29 04:02:40;;;;;;;10.48;8.63;;;;;;;11.21;78.54;100928.86;1644313;85;27540;-73
2021/05/29 04:05:09;;;;;;;10.48;9.40;;;;;;;11.25;78.51;100926.13;1673859;85;25954;-73
2021/05/29 04:07:38;;;;;;;9.88;8.88;;;;;;;11.28;78.47;100929.80;1652594;84;26476;-74
2021/05/29 04:10:09;;;;;;;10.58;9.48;;;;;;;11.30;78.41;100924.59;1628387;84;25982;-74
2021/05/29 04:12:38;;;;;;;9.95;9.03;;;;;;;11.36;78.36;100929.70;1676699;84;26655;-73
2021/05/29 04:15:08;;;;;;;10.88;8.88;;;;;;;11.39;78.24;100925.33;1679805;84;27522;-73
2021/05/29 04:17:35;;;;;;;10.47;8.87;;;;;;;11.38;78.10;100929.02;1656079;84;25757;-73
2021/05/29 04:20:05;;;;;;;11.65;9.50;;;;;;;11.38;78.02;100928.52;1614517;84;25746;-74
2021/05/29 04:22:32;;;;;;;11.43;9.50;;;;;;;11.39;78.01;100922.65;1654681;84;26117;-74
2021/05/29 04:25:00;;;;;;;10.00;8.53;;;;;;;11.42;77.99;100932.98;1680029;84;25284;-74
2021/05/29 04:27:27;;;;;;;10.63;9.20;;;;;;;11.48;77.89;100934.43;1609160;84;28224;-74
2021/05/29 04:29:54;;;;;;;10.13;8.38;;;;;;;11.50;77.91;100934.27;1670402;83;25631;-74
2021/05/29 04:32:21;;;;;;;10.13;8.33;;;;;;;11.50;77.96;100940.44;1679267;84;25731;-73
2021/05/29 04:34:48;;;;;;;12.50;8.55;;;;;;;11.57;78.04;100937.36;1692922;84;26104;-73
2021/05/29 04:37:16;;;;;;;13.28;8.88;;;;;;;11.63;78.00;100938.48;1653727;84;25654;-73
2021/05/29 04:39:45;;;;;;;11.28;7.80;;;;;;;11.69;77.91;100935.59;1655121;84;27300;-74
2021/05/29 04:42:13;;;;;;;10.38;8.38;;;;;;;11.72;77.55;100930.67;1652454;84;25656;-74
2021/05/29 04:44:40;;;;;;;9.10;7.50;;;;;;;11.77;77.52;100934.98;1684995;83;25666;-74
2021/05/29 04:47:07;;;;;;;10.48;6.50;;;;;;;11.78;77.02;100935.32;1677904;84;25830;-73
2021/05/29 04:49:35;;;;;;;9.40;7.08;;;;;;;11.82;77.01;100923.69;1654038;84;26138;-73
2021/05/29 04:52:04;;;;;;;11.30;6.87;;;;;;;11.86;76.96;100933.03;1678800;84;27507;-74
2021/05/29 04:54:32;;;;;;;10.20;6.37;;;;;;;11.92;76.83;100933.12;1680719;84;25765;-73
2021/05/29 04:56:59;;;;;;;8.90;6.05;;;;;;;11.97;76.54;100935.24;1627646;84;25672;-74
2021/05/29 04:59:26;;;;;;;7.08;5.58;;;;;;;11.98;75.99;100933.70;1655094;84;26013;-73
2021/05/29 05:01:53;;;;;;;7.95;5.35;;;;;;;11.98;75.79;100933.70;1679336;84;26132;-74
2021/05/29 05:04:20;;;;;;;7.15;4.80;;;;;;;12.00;75.44;100934.84;1655393;84;28073;-74
2021/05/29 05:06:47;;;;;;;7.67;5.60;;;;;;;12.05;74.94;100931.94;1606314;84;25776;-73
2021/05/29 05:09:14;;;;;;;8.40;5.22;;;;;;;12.07;74.46;100931.24;1675236;84;25804;-74
2021/05/29 05:11:41;;;;;;;6.95;4.78;;;;;;;12.08;74.46;100931.55;1657017;84;25706;-74
2021/05/29 05:14:08;;;;;;;6.97;4.85;;;;;;;12.12;74.53;100923.97;1653920;84;25891;-73
2021/05/29 05:16:35;;;;;;;5.35;4.58;;;;;;;12.19;74.22;100930.22;1638030;84;27410;-73
2021/05/29 05:19:02;;;;;;;5.78;4.53;;;;;;;12.27;74.68;100936.31;1646134;84;26186;-74
2021/05/29 05:21:29;;;;;;;4.60;4.20;;;;;;;12.33;73.58;100938.77;1677699;84;25767;-74
2021/05/29 05:23:56;;;;;;;5.65;4.28;;;;;;;12.36;73.32;100939.72;1676880;84;25699;-74
2021/05/29 05:26:25;;;;;;;4.80;4.22;;;;;;;12.41;72.63;100946.71;1615949;84;25695;-74
2021/05/29 05:28:52;;;;;;;8.65;4.45;;;;;;;12.44;72.55;100945.50;1612478;84;27521;-73
2021/05/29 05:31:20;;;;;;;4.95;4.25;;;;;;;12.52;72.54;100938.16;1649473;84;25948;-74
2021/05/29 05:33:49;;;;;;;5.00;4.10;;;;;;;12.59;72.25;100946.28;1671520;82;25751;-74
2021/05/29 05:36:16;;;;;;;5.92;4.20;;;;;;;12.62;72.45;100944.03;1616012;86;25684;-74
2021/05/29 05:38:45;;;;;;;5.40;3.83;;;;;;;12.72;72.81;100946.42;1629849;84;26005;-74
2021/05/29 05:41:13;;;;;;;5.30;4.53;;;;;;;12.79;72.49;100945.44;1666553;84;27480;-73
2021/05/29 05:43:41;;;;;;;6.87;4.60;;;;;;;12.82;72.20;100949.11;1677941;84;25290;-74
2021/05/29 05:46:11;;;;;;;5.92;4.03;;;;;;;12.88;71.78;100942.95;1633347;84;25907;-74
2021/05/29 05:48:37;;;;;;;5.05;4.20;;;;;;;12.91;71.08;100947.11;1636734;84;26014;-74
2021/05/29 05:51:05;;;;;;;5.62;3.85;;;;;;;12.94;71.40;100947.55;1688532;83;25816;-74
2021/05/29 05:53:32;;;;;;;5.53;3.62;;;;;;;13.01;71.72;100941.72;1689794;83;27355;-73
2021/05/29 05:56:06;;;;;;;4.87;3.87;;;;;;;13.14;71.71;100943.72;1682232;83;25722;-73
2021/05/29 05:58:36;;;;;;;3.52;3.22;;;;;;;13.25;70.76;100940.50;1662039;84;26415;-73
2021/05/29 06:01:06;;;;;;;5.10;3.17;;;;;;;13.31;69.62;100943.75;1689870;84;25826;-74
2021/05/29 06:03:34;;;;;;;5.53;3.72;;;;;;;13.38;70.84;100943.80;1697656;84;25761;-74
2021/05/29 06:06:01;;;;;;;4.55;3.35;;;;;;;13.45;69.74;100940.64;1653067;85;28198;-74
2021/05/29 06:08:28;;;;;;;3.65;3.12;;;;;;;13.51;69.02;100952.80;1663684;84;26324;-74
2021/05/29 06:10:55;;;;;;;4.03;3.40;;;;;;;13.48;68.06;100942.92;1644557;84;25860;-74
2021/05/29 06:21:19;;;;;;;4.67;3.42;;;;;;;13.32;68.88;100957.53;1691478;84;25821;-74
2021/05/29 06:23:46;;;;;;;3.60;3.22;;;;;;;13.24;68.02;100964.38;1693543;84;26147;-73
2021/05/29 06:26:13;;;;;;;3.50;2.87;;;;;;;13.20;68.00;100960.92;1654956;84;25867;-74
2021/05/29 06:28:40;;;;;;;4.78;3.40;;;;;;;13.25;68.31;100960.67;1652087;84;25953;-74
2021/05/29 06:31:07;;;;;;;4.30;3.50;;;;;;;13.32;68.33;100961.56;1659972;84;27418;-73
2021/05/29 06:33:34;;;;;;;3.40;3.02;;;;;;;13.37;68.09;100962.30;1672244;84;25856;-74
2021/05/29 06:36:02;;;;;;;4.05;3.15;;;;;;;13.36;67.03;100963.34;1664033;83;26317;-74
2021/05/29 06:38:29;;;;;;;4.25;2.95;;;;;;;13.31;67.50;100965.27;1641689;84;26306;-73
2021/05/29 06:40:56;;;;;;;4.40;3.00;;;;;;;13.34;66.22;100965.39;1641339;84;25796;-73
2021/05/29 06:43:23;;;;;;;4.45;2.87;;;;;;;13.34;66.53;100968.09;1678587;84;27524;-74
2021/05/29 06:45:51;;;;;;;4.87;2.92;;;;;;;13.41;67.10;100965.75;1658139;84;25820;-73
2021/05/29 06:48:19;;;;;;;3.58;2.58;;;;;;;13.55;66.13;100968.87;1646448;84;25759;-74
2021/05/29 06:50:53;;;;;;;5.25;2.98;;;;;;;13.61;65.32;100961.34;1643127;84;25656;-73
2021/05/29 06:53:25;;;;;;;3.98;2.80;;;;;;;13.60;65.34;100958.32;1683724;84;25749;-74
2021/05/29 06:58:39;;;;;;;3.35;2.98;;;;;;;13.56;65.16;100961.09;1631998;84;25529;-73
2021/05/29 07:01:05;;;;;;;5.92;3.10;;;;;;;13.51;65.51;100962.22;1682933;83;25650;-74
2021/05/29 07:03:32;;;;;;;7.72;3.65;;;;;;;13.51;65.97;100961.38;1684464;83;25622;-73
2021/05/29 07:05:59;;;;;;;4.83;3.33;;;;;;;13.42;66.20;100959.36;1686552;83;25646;-74
2021/05/29 07:08:26;;;;;;;3.15;2.85;;;;;;;13.39;66.45;100957.05;1635304;84;27431;-74
2021/05/29 07:10:53;;;;;;;3.55;3.22;;;;;;;13.38;66.09;100957.25;1638762;84;26392;-73
2021/05/29 07:13:20;;;;;;;4.53;3.15;;;;;;;13.34;66.45;100958.16;1682863;84;26355;-74
2021/05/29 07:15:47;;;;;;;4.60;3.17;;;;;;;13.34;66.48;100962.20;1652284;84;26425;-73
2021/05/29 07:18:15;;;;;;;3.65;2.92;;;;;;;13.31;65.69;100965.27;1647171;84;25731;-74
2021/05/29 07:20:43;;;;;;;5.35;3.25;;;;;;;13.27;65.52;100970.73;1680223;84;27540;-74
2021/05/29 07:23:10;;;;;;;5.80;3.20;;;;;;;13.27;66.20;100969.89;1667612;84;25662;-74
2021/05/29 07:25:40;;;;;;;5.20;3.22;;;;;;;13.36;66.59;100970.06;1656124;84;25525;-73
2021/05/29 07:28:06;;;;;;;5.42;3.33;;;;;;;13.44;66.15;100967.22;1659543;84;26298;-74
2021/05/29 07:30:33;;;;;;;3.10;2.35;;;;;;;13.50;66.14;100965.09;1626496;84;25845;-73
2021/05/29 07:33:00;;;;;;;2.87;2.60;;;;;;;13.57;65.83;100961.42;1657003;84;27495;-73
2021/05/29 07:35:27;;;;;;;3.30;2.60;;;;;;;13.68;65.78;100964.92;1684867;81;26470;-74
2021/05/29 07:37:55;;;;;;;3.42;2.80;;;;;;;13.73;64.74;100967.83;1674463;82;26298;-74
2021/05/29 07:40:23;;;;;;;3.27;2.92;;;;;;;13.82;65.24;100968.50;1632112;84;25953;-73
2021/05/29 07:42:50;;;;;;;2.60;2.40;;;;;;;13.80;64.00;100970.56;1679474;84;25729;-73
2021/05/29 07:45:17;;;;;;;4.00;2.60;;;;;;;13.72;63.29;100968.87;1692838;83;27469;-74
2021/05/29 07:47:44;;;;;;;3.42;2.42;;;;;;;13.62;63.99;100970.26;1620898;84;25865;-74
2021/05/29 07:50:13;;;;;;;2.77;2.25;;;;;;;13.64;63.31;100971.70;1674009;84;25615;-74
2021/05/29 07:52:40;;;;;;;3.27;2.17;;;;;;;13.57;62.71;100970.01;1684965;84;25643;-74
2021/05/29 07:55:09;;;;;;;3.40;2.17;;;;;;;13.52;62.71;100975.14;1663857;84;26175;-73
2021/05/29 07:57:36;;;;;;;3.92;2.45;;;;;;;13.50;63.16;100972.66;1628081;84;27972;-73
2021/05/29 08:00:09;;;;;;;5.75;3.00;;;;;;;13.54;63.46;100977.11;1620498;85;26440;-75
2021/05/29 08:02:36;;;;;;;4.03;2.58;;;;;;;13.50;62.86;100971.30;1699198;83;25651;-75
2021/05/29 08:05:06;;;;;;;2.72;2.47;;;;;;;13.50;63.37;100969.13;1675341;83;25716;-75
2021/05/29 08:07:33;;;;;;;3.05;2.08;;;;;;;13.56;63.49;100974.55;1633692;83;25588;-74
2021/05/29 08:10:00;;;;;;;2.47;2.27;;;;;;;13.64;63.75;100973.58;1678319;84;27502;-75
2021/05/29 08:12:27;;;;;;;6.65;2.98;;;;;;;13.68;64.11;100981.07;1677840;84;25749;-75
2021/05/29 08:14:54;;;;;;;3.58;2.85;;;;;;;13.67;63.75;100978.55;1672940;84;25770;-75
2021/05/29 08:17:21;;;;;;;4.00;2.87;;;;;;;13.65;64.11;100973.38;1656083;83;26942;-75
2021/05/29 08:19:48;;;;;;;3.40;2.55;;;;;;;13.63;63.97;100975.94;1653263;83;26074;-75
2021/05/29 08:22:15;;;;;;;4.25;3.02;;;;;;;13.65;64.22;100975.23;1645213;85;27483;-75
2021/05/29 08:24:42;;;;;;;3.52;2.55;;;;;;;13.65;63.95;100975.23;1664159;83;26461;-75
2021/05/29 08:27:09;;;;;;;5.40;3.33;;;;;;;13.65;64.33;100973.88;1666853;83;25354;-75
2021/05/29 08:29:36;;;;;;;3.37;2.87;;;;;;;13.72;64.16;100971.56;1690655;83;25794;-75
2021/05/29 08:32:04;;;;;;;4.55;3.20;;;;;;;13.83;65.09;100971.52;1712076;83;25738;-75
2021/05/29 08:34:31;;;;;;;3.98;3.25;;;;;;;13.88;64.22;100975.78;1678487;83;27325;-75
2021/05/29 08:36:58;;;;;;;9.05;2.92;;;;;;;13.89;63.38;100980.14;1627704;85;25733;-75
2021/05/29 08:39:25;;;;;;;5.08;3.50;;;;;;;13.83;63.21;100978.25;1651284;83;25795;-74
2021/05/29 08:41:53;;;;;;;2.85;2.50;;;;;;;13.78;63.82;100980.19;1679376;84;26477;-75
2021/05/29 08:44:20;;;;;;;4.17;3.00;;;;;;;13.79;63.60;100977.80;1652214;83;26020;-74
2021/05/29 08:46:49;;;;;;;3.25;2.72;;;;;;;13.77;63.74;100974.47;1664969;83;27542;-74
2021/05/29 08:49:16;;;;;;;5.33;2.72;;;;;;;13.82;63.85;100976.58;1696065;83;25684;-75
2021/05/29 08:51:43;;;;;;;3.85;2.80;;;;;;;13.82;63.74;100972.53;1691897;83;25756;-75
2021/05/29 08:54:10;;;;;;;3.67;3.20;;;;;;;13.82;64.23;100977.41;1691942;83;26387;-74
2021/05/29 08:56:37;;;;;;;3.37;2.80;;;;;;;13.90;63.89;100975.06;1628201;84;25695;-75
2021/05/29 08:59:04;;;;;;;4.12;3.15;;;;;;;13.93;62.99;100980.90;1639404;84;27445;-75
2021/05/29 09:01:31;;;;;;;5.08;3.25;;;;;;;14.01;63.70;100979.89;1713147;82;25863;-74
2021/05/29 09:04:07;;;;;;;3.58;3.20;;;;;;;14.10;63.80;100983.25;1651882;85;26483;-75
2021/05/29 09:06:39;;;;;;;4.30;2.95;;;;;;;14.19;63.89;100982.05;1687932;84;25754;-74
2021/05/29 09:09:13;;;;;;;4.45;2.87;;;;;;;14.33;63.58;100985.13;1679205;83;25927;-74
2021/05/29 09:11:53;;;;;;;3.30;2.80;;;;;;;14.41;62.03;100975.55;1652964;84;28067;-75
2021/05/29 09:14:32;;;;;;;4.90;3.60;;;;;;;14.34;61.92;100982.77;1685825;84;33339;-74
2021/05/29 09:17:22;;;;;;;4.42;4.00;;;;;;;14.36;62.17;100972.62;1686120;84;25696;-75
2021/05/29 09:20:09;;;;;;;4.85;3.37;;;;;;;14.52;62.71;100967.68;1648984;84;25891;-75
2021/05/29 09:23:02;;;;;;;6.30;4.83;;;;;;;14.79;62.32;100962.36;1640639;84;25763;-74
2021/05/29 09:25:32;;;;;;;3.15;2.87;;;;;;;15.06;62.17;100962.69;1681756;83;27481;-75
2021/05/29 09:28:05;;;;;;;6.40;3.40;;;;;;;15.30;61.32;100957.51;1682465;84;25687;-75
2021/05/29 09:30:48;;;;;;;3.90;3.50;;;;;;;15.31;60.85;100958.34;1649367;83;26435;-74
2021/05/29 09:33:24;;;;;;;4.62;4.00;;;;;;;15.34;62.03;100956.56;1680696;83;25842;-74
2021/05/29 09:36:06;;;;;;;6.12;3.58;;;;;;;15.60;61.56;100956.56;1709351;83;25761;-75
2021/05/29 09:38:46;;;;;;;4.15;3.00;;;;;;;15.69;60.97;100955.82;1680019;83;26942;-75
2021/05/29 09:41:28;;;;;;;3.87;3.20;;;;;;;15.66;60.11;100953.53;1681523;83;26348;-75
2021/05/29 09:44:04;;;;;;;3.72;2.62;;;;;;;15.49;59.24;100970.70;1654668;84;25733;-75
2021/05/29 09:46:50;;;;;;;4.58;2.77;;;;;;;15.50;59.58;100964.27;1686237;83;26347;-74
2021/05/29 09:49:17;;;;;;;3.62;1.60;;;;;;;15.40;58.18;100969.22;1679732;83;25900;-75
2021/05/29 09:51:44;;;;;;;1.72;1.10;;;;;;;14.94;56.64;100976.48;1661579;84;28139;-75
2021/05/29 09:54:12;;;;;;;2.47;2.05;;;;;;;14.54;57.29;100979.63;1635752;84;26542;-75
2021/05/29 09:56:42;;;;;;;3.67;2.40;;;;;;;14.19;59.51;100984.23;1689261;84;25698;-75
2021/05/29 09:59:19;;;;;;;3.80;2.20;;;;;;;14.03;61.46;100983.75;1690199;84;25709;-75
2021/05/29 10:01:51;;;;;;;2.83;2.27;;;;;;;13.89;62.96;100985.02;1630858;84;25776;-75
2021/05/29 10:04:36;;;;;;;2.40;2.20;;;;;;;13.78;63.95;100984.73;1620231;84;27295;-75
2021/05/29 10:07:06;;;;;;;2.40;1.65;;;;;;;13.69;64.10;100983.22;1684469;83;25802;-75
2021/05/29 10:09:34;;;;;;;1.60;1.50;;;;;;;13.61;64.26;100976.66;1693550;84;25730;-75
2021/05/29 10:12:04;;;;;;;1.77;1.50;;;;;;;13.57;64.10;100973.54;1642212;84;25842;-74
2021/05/29 10:14:31;;;;;;;1.45;1.35;;;;;;;13.60;64.24;100975.02;1645983;85;25781;-74
2021/05/29 10:17:02;;;;;;;1.47;1.37;;;;;;;13.62;63.70;100977.80;1685364;84;27393;-75
2021/05/29 10:19:31;;;;;;;1.50;1.30;;;;;;;13.71;64.41;100975.78;1690465;83;26107;-74
2021/05/29 10:22:13;;;;;;;1.22;1.12;;;;;;;13.76;63.76;100971.48;1635063;84;25674;-74
2021/05/29 10:24:41;;;;;;;1.62;1.30;;;;;;;13.85;63.35;100971.64;1639245;84;25962;-75
2021/05/29 10:27:18;;;;;;;2.40;1.77;;;;;;;13.99;63.83;100971.69;1688081;84;25307;-74
2021/05/29 10:29:44;;;;;;;1.77;1.67;;;;;;;14.09;63.14;100968.13;1690281;84;27433;-75
2021/05/29 10:32:18;;;;;;;1.95;1.80;;;;;;;14.16;63.18;100973.84;1658629;83;25628;-75
2021/05/29 10:35:05;;;;;;;2.40;2.20;;;;;;;14.20;62.85;100976.45;1667740;84;25679;-74
2021/05/29 10:37:55;;;;;;;2.12;1.92;;;;;;;14.26;62.73;100972.14;1683303;84;25806;-75
2021/05/29 10:40:28;;;;;;;2.83;2.33;;;;;;;14.26;62.63;100970.80;1690258;84;25812;-75
2021/05/29 10:43:18;;;;;;;4.30;3.20;;;;;;;14.25;62.93;100971.30;1648790;84;27443;-74
2021/05/29 10:45:56;;;;;;;2.77;2.42;;;;;;;14.27;62.80;100965.70;1629964;84;25782;-74
2021/05/29 10:48:28;;;;;;;3.35;3.05;;;;;;;14.29;62.87;100969.05;1690728;84;25698;-74
2021/05/29 10:53:42;;;;;;;4.50;2.95;;;;;;;14.38;63.07;100962.46;1658306;84;25734;-74
2021/05/29 10:56:27;;;;;;;3.77;2.62;;;;;;;14.47;63.05;100967.99;1688779;84;28000;-74
2021/05/29 10:59:15;;;;;;;4.00;2.77;;;;;;;14.57;63.45;100961.17;1693343;83;25689;-75
2021/05/29 11:01:48;;;;;;;3.10;2.80;;;;;;;14.67;63.55;100956.72;1692613;84;26115;-74
2021/05/29 11:04:23;;;;;;;3.42;3.10;;;;;;;14.73;62.29;100957.28;1688025;84;26378;-75
2021/05/29 11:07:18;;;;;;;3.05;2.75;;;;;;;14.76;63.51;100964.09;1667137;84;26378;-75
2021/05/29 11:09:56;;;;;;;8.53;2.87;;;;;;;14.79;62.62;100956.45;1692433;84;27409;-75
2021/05/29 11:12:47;;;;;;;4.25;3.02;;;;;;;14.82;62.58;100960.61;1693325;83;26384;-74
2021/05/29 11:15:14;;;;;;;6.35;2.87;;;;;;;14.91;62.51;100949.40;1673015;84;25890;-75
2021/05/29 11:17:46;;;;;;;3.98;2.70;;;;;;;15.02;62.70;100952.84;1652625;84;26464;-75
2021/05/29 11:20:20;;;;;;;4.65;2.75;;;;;;;15.10;61.84;100955.83;1692151;84;25770;-75
2021/05/29 11:22:50;;;;;;;4.30;2.45;;;;;;;15.12;61.19;100955.14;1695075;84;28229;-74
2021/05/29 11:25:21;;;;;;;4.65;2.12;;;;;;;15.10;60.56;100951.27;1644713;84;26527;-75
2021/05/29 11:27:49;;;;;;;3.77;2.60;;;;;;;15.08;59.91;100947.95;1618862;84;25678;-74
2021/05/29 11:30:23;;;;;;;3.12;1.95;;;;;;;15.11;60.41;100946.72;1692457;84;25787;-75
2021/05/29 11:35:37;;;;;;;1.98;1.80;;;;;;;15.26;59.60;100948.69;1648418;84;27454;-75
2021/05/29 11:38:32;;;;;;;3.85;1.60;;;;;;;15.32;58.64;100949.19;1667414;84;26276;-75
2021/05/29 11:41:15;;;;;;;1.50;1.40;;;;;;;15.31;58.43;100948.90;1692784;84;25427;-75
2021/05/29 11:43:53;;;;;;;1.42;1.30;;;;;;;15.35;58.59;100937.99;1694815;84;26160;-75
2021/05/29 11:46:23;;;;;;;3.80;1.50;;;;;;;15.43;58.16;100950.78;1653328;84;25863;-75
2021/05/29 11:49:03;;;;;;;2.30;1.45;;;;;;;15.55;59.00;100942.02;1669226;84;29156;-74